METAR Data
IDs: Format: Raw Decoded Include TAF

Data at: 1256 UTC 07 Jul 2020

KBOS 071254Z 13007KT 10SM FEW007 SCT080 BKN130 BKN250 19/16 A3019 RMK AO2 SLP222 T01890161 $
KBOS 071154Z 13006KT 10SM FEW008 SCT085 BKN250 19/17 A3019 RMK AO2 SLP222 T01890167 10189 20172 50006 $
KBOS 071124Z 14008KT 10SM SCT008 BKN070 BKN250 18/16 A3019 RMK AO2 T01780161 $
KBOS 071107Z 13007KT 10SM BKN007 BKN070 OVC250 17/16 A3019 RMK AO2 T01720161 $
KBOS 071054Z 13006KT 10SM SCT007 BKN065 BKN250 17/16 A3019 RMK AO2 SLP223 T01720161 $
KBOS 071040Z 13007KT 10SM FEW007 BKN070 BKN250 18/16 A3019 RMK AO2 T01780161 $
KBOS 070954Z 18004KT 10SM FEW012 BKN065 BKN250 18/17 A3018 RMK AO2 SLP219 T01780167 $
KBOS 070854Z 17005KT 10SM FEW012 BKN070 17/16 A3017 RMK AO2 SLP215 T01720161 55000 $
KBOS 070754Z 14004KT 10SM BKN070 OVC080 17/16 A3016 RMK AO2 SLP212 T01720161 $
KBOS 070654Z 13003KT 10SM SCT100 17/16 A3015 RMK AO2 SLP210 T01720156 $
KBOS 070554Z 17005KT 10SM FEW015 BKN090 17/16 A3017 RMK AO2 SLP216 T01720156 10183 20167 51004 $
KBOS 070454Z 18006KT 10SM FEW015 SCT090 17/16 A3017 RMK AO2 SLP214 T01720156 402110172 $
KBOS 070354Z 15004KT 10SM FEW012 SCT080 17/16 A3016 RMK AO2 SLP214 T01720161 $
KBOS 070254Z 16007KT 10SM FEW012 SCT080 18/16 A3016 RMK AO2 SLP211 T01780161 50010 $
KBOS 070154Z 15008KT 10SM FEW008 SCT080 SCT250 18/16 A3016 RMK AO2 SLP212 T01780161 $
KBOS 070054Z 10010KT 10SM FEW090 FEW250 18/16 A3013 RMK AO2 SLP203 T01780156 $
KBOS 062354Z 09009KT 10SM FEW035 FEW250 18/16 A3013 RMK AO2 SLP201 T01830156 10206 20183 50003 $
KBOS 062254Z 08009KT 10SM FEW030 FEW250 19/16 A3013 RMK AO2 SLP202 T01890161 $
KBOS 062154Z 12008KT 10SM FEW030 FEW250 19/16 A3012 RMK AO2 SLP200 T01940161 $
KBOS 062054Z 10011KT 10SM FEW014 FEW030 19/16 A3012 RMK AO2 SLP198 T01940156 51001 $
KBOS 061954Z 08011KT 10SM FEW014 FEW030 20/16 A3011 RMK AO2 SLP196 T02000161 $
KBOS 061854Z 10012KT 10SM FEW013 FEW028 21/16 A3012 RMK AO2 SLP200 T02060161 $
KBOS 061754Z 09013KT 10SM FEW009 FEW015 FEW025 21/17 A3011 RMK AO2 SLP197 T02060172 10211 20183 51007 $
KBOS 061728Z 09011KT 10SM FEW009 FEW015 FEW022 20/17 A3011 RMK AO2 T02000172 $
KBOS 061654Z 08010KT 10SM FEW015 SCT022 21/17 A3012 RMK AO2 SLP197 T02060172 $
KBOS 061603Z 06011KT 10SM FEW011 SCT021 21/18 A3011 RMK AO2 T02110178 $
KBOS 061554Z 06010KT 10SM FEW011 BKN021 21/18 A3011 RMK AO2 SLP195 T02110178 $
KBOS 061454Z 08008KT 10SM FEW012 OVC018 20/18 A3009 RMK AO2 SLP190 T02000178 52018 $
KBOS 061433Z 07007KT 10SM OVC015 20/18 A3008 RMK AO2 T02000178 $
KBOS 061354Z 06005KT 10SM OVC012 20/18 A3007 RMK AO2 SLP183 T02000183 $
KBOS 061316Z 02005KT 10SM OVC010 20/18 A3007 RMK AO2 T02000178 $
KBOS 061254Z 36006KT 10SM BKN007 OVC011 19/17 A3006 RMK AO2 SLP179 T01890172 $
KBOS 061202Z 36008KT 10SM OVC009 19/17 A3004 RMK AO2 T01890172 $
KBOS 061154Z 35008KT 10SM FEW005 OVC011 19/17 A3004 RMK AO2 SLP172 70011 T01890172 10189 20172 51013 $
KBOS 061149Z 34005KT 10SM FEW005 OVC011 19/18 A3004 RMK AO2 $
KBOS 061118Z 36008KT 10SM BKN005 OVC011 19/17 A3004 RMK AO2 T01890172 $
KBOS 061054Z 35005KT 4SM BR BKN004 18/17 A3002 RMK AO2 SLP165 T01830172 $
KBOS 061031Z 35006KT 4SM BR BKN004 18/17 A3002 RMK AO2 T01830172 $
KBOS 060954Z 34005KT 4SM BR SCT002 18/17 A3000 RMK AO2 SLP159 VIS SE 1 1/2 T01780172 $
KBOS 060923Z 35007KT 3/4SM R04R/P6000FT BR OVC002 17/17 A2999 RMK AO2 T01720167
KBOS 060904Z 34006KT 3SM BR BKN003 18/17 A2999 RMK AO2 T01780167
KBOS 060854Z 35006KT 3SM BR SCT003 BKN250 18/17 A2998 RMK AO2 SLP153 T01780167 53005
KBOS 060754Z 01004KT 10SM FEW015 FEW110 SCT250 18/17 A2997 RMK AO2 SLP149 T01780167
KBOS 060654Z 03006KT 10SM FEW110 18/16 A2998 RMK AO2 SLP150 T01780161
KBOS 060554Z 09004KT 10SM FEW015 SCT120 SCT250 18/17 A2997 RMK AO2 SLP147 60011 T01780167 10233 20178 53002
KBOS 060454Z COR 15004KT 10SM FEW014 SCT120 SCT250 18/17 A2996 RMK AO2 SLP145 T01830167 402610178
KBOS 060427Z 08007KT 10SM FEW009 SCT014 SCT120 18/17 A2996 RMK AO2 T01830167
KBOS 060354Z 07010KT 10SM FEW009 BKN013 OVC120 19/18 A2996 RMK AO2 LTG DSNT ALQDS RAE39 TSE39 SLP145 TS MOV SE P0006 T01940183
KBOS 060345Z 07007KT 10SM BKN010 BKN100 OVC120 20/19 A2996 RMK AO2 LTG DSNT ALQDS RAE39 TSE39 TS MOV SE P0006 T02000189
KBOS 060254Z 27009KT 6SM -TSRA BR BKN010 BKN027CB OVC110 22/21 A2996 RMK AO2 LTG DSNT ALQDS RAB08 TSB12 PRESRR SLP146 OCNL LTGIC SW TS SW MOV SE P0005 60005 T02220211 53018
KBOS 060239Z 17005KT 6SM -TSRA BR BKN010 BKN050 OVC110 22/21 A2994 RMK AO2 LTG DSNT ALQDS RAB08 TSB12 OCNL LTGIC SW TS SW MOV SE P0004 T02220206
KBOS 060217Z 20006KT 9SM -TSRA SCT030CB BKN100 OVC250 22/20 A2995 RMK AO2 LTG DSNT N AND W RAB08 TSB12 FRQ LTGIC W TS W MOV SE P0000 T02220200
KBOS 060154Z 16007KT 10SM FEW030 BKN120 BKN250 22/20 A2992 RMK AO2 LTG DSNT W SLP132 T02220200